createdAt,value
2023-05-14T00:04:00.413Z,10.57
2023-05-14T00:09:26.329Z,10.49
2023-05-14T00:14:52.162Z,10.43
2023-05-14T00:20:18.004Z,10.38
2023-05-14T00:25:45.069Z,10.32
2023-05-14T00:31:03.795Z,10.25
2023-05-14T00:36:30.377Z,10.19
2023-05-14T00:41:55.051Z,10.15
2023-05-14T00:47:21.543Z,10.13
2023-05-14T00:52:47.554Z,10.07
2023-05-14T00:58:16.576Z,10.00
2023-05-14T01:03:42.641Z,9.94
2023-05-14T01:09:17.359Z,9.89
2023-05-14T01:14:51.118Z,9.83
2023-05-14T01:20:17.376Z,9.76
2023-05-14T01:25:43.414Z,9.70
2023-05-14T01:31:13.828Z,9.64
2023-05-14T01:36:40.018Z,9.57
2023-05-14T01:42:07.036Z,9.48
2023-05-14T01:47:32.942Z,9.37
2023-05-14T01:52:58.956Z,9.28
2023-05-14T01:58:25.007Z,9.23
2023-05-14T02:03:42.564Z,9.17
2023-05-14T02:09:08.513Z,9.08
2023-05-14T02:14:34.377Z,9.01
2023-05-14T02:20:00.199Z,8.94
2023-05-14T02:25:27.819Z,8.88
2023-05-14T02:30:53.536Z,8.84
2023-05-14T02:36:19.741Z,8.83
2023-05-14T02:41:45.635Z,8.83
2023-05-14T02:47:11.646Z,8.85
2023-05-14T02:52:37.376Z,8.88
2023-05-14T02:58:03.333Z,8.90
2023-05-14T03:03:19.026Z,8.94
2023-05-14T03:08:45.329Z,8.98
2023-05-14T03:14:11.161Z,9.01
2023-05-14T03:19:36.837Z,9.03
2023-05-14T03:25:02.539Z,9.08
2023-05-14T03:30:30.520Z,9.12
2023-05-14T03:35:56.296Z,9.16
2023-05-14T03:41:22.086Z,9.21
2023-05-14T03:46:48.027Z,9.25
2023-05-14T03:52:13.892Z,9.31
2023-05-14T03:57:39.576Z,9.36
2023-05-14T04:03:05.644Z,9.45
2023-05-14T04:08:31.582Z,9.56
2023-05-14T04:13:57.849Z,9.68
2023-05-14T04:19:27.212Z,9.82
2023-05-14T04:24:53.005Z,10.00
2023-05-14T04:30:18.870Z,10.10
2023-05-14T04:35:34.682Z,10.14
2023-05-14T04:41:00.813Z,10.15
2023-05-14T04:46:27.866Z,10.15
2023-05-14T04:51:53.984Z,10.12
2023-05-14T04:57:19.817Z,10.16
2023-05-14T05:02:37.071Z,10.61
2023-05-14T05:08:02.901Z,11.16
2023-05-14T05:13:28.736Z,11.73
2023-05-14T05:18:54.812Z,12.54
2023-05-14T05:24:13.494Z,13.13
2023-05-14T05:29:32.986Z,13.43
2023-05-14T05:34:59.399Z,13.47
2023-05-14T05:40:26.030Z,13.53
2023-05-14T05:45:51.946Z,13.65
2023-05-14T05:51:17.730Z,13.67
2023-05-14T05:56:43.563Z,13.61
2023-05-14T06:02:09.465Z,13.61
2023-05-14T06:07:35.184Z,13.72
2023-05-14T06:13:01.167Z,13.91
2023-05-14T06:18:27.184Z,14.14
2023-05-14T06:23:54.589Z,14.37
2023-05-14T06:29:20.464Z,14.49
2023-05-14T06:34:46.467Z,14.53
2023-05-14T06:40:12.311Z,14.56
2023-05-14T06:45:38.359Z,14.60
2023-05-14T06:51:04.205Z,14.68
2023-05-14T06:56:30.027Z,14.81
2023-05-14T07:01:55.773Z,14.88
2023-05-14T07:07:15.572Z,14.97
2023-05-14T07:12:41.411Z,15.08
2023-05-14T07:18:07.727Z,15.17
2023-05-14T07:23:33.486Z,15.27
2023-05-14T07:28:59.551Z,15.39
2023-05-14T07:34:25.390Z,15.48
2023-05-14T07:39:43.879Z,15.58
2023-05-14T07:45:09.643Z,15.74
2023-05-14T07:50:35.719Z,15.95
2023-05-14T07:56:00.672Z,16.16
2023-05-14T08:01:26.545Z,16.42
2023-05-14T08:06:52.445Z,16.76
2023-05-14T08:12:18.227Z,17.01
2023-05-14T08:17:44.120Z,17.12
2023-05-14T08:23:09.867Z,17.30
2023-05-14T08:28:35.528Z,17.51
2023-05-14T08:33:54.884Z,17.72
2023-05-14T08:39:20.664Z,17.92
2023-05-14T08:44:56.407Z,18.12
2023-05-14T08:50:25.724Z,18.33
2023-05-14T08:55:52.618Z,18.59
2023-05-14T09:01:18.383Z,18.82
2023-05-14T09:06:46.243Z,19.05
2023-05-14T09:12:13.441Z,19.30
2023-05-14T09:17:44.457Z,19.61
2023-05-14T09:23:14.540Z,19.97
2023-05-14T09:28:40.445Z,20.45
2023-05-14T09:34:11.870Z,20.81
2023-05-14T09:39:37.641Z,21.13
2023-05-14T09:45:03.289Z,21.47
2023-05-14T09:50:30.801Z,21.77
2023-05-14T09:55:57.607Z,21.90
2023-05-14T10:01:23.680Z,22.08
2023-05-14T10:06:53.528Z,22.19
2023-05-14T10:12:20.535Z,22.21
2023-05-14T10:17:52.143Z,22.23
2023-05-14T10:23:18.684Z,22.38
2023-05-14T10:28:44.957Z,22.59
2023-05-14T10:34:11.473Z,22.53
2023-05-14T10:39:37.217Z,22.37
2023-05-14T10:45:18.472Z,22.44
2023-05-14T10:50:44.530Z,22.62
2023-05-14T10:56:15.033Z,22.56
2023-05-14T11:01:44.245Z,22.28
2023-05-14T11:07:12.269Z,22.08
2023-05-14T11:12:38.507Z,21.78
2023-05-14T11:18:06.641Z,21.43
2023-05-14T11:23:22.623Z,21.15
2023-05-14T11:28:47.481Z,21.05
2023-05-14T11:34:17.130Z,20.99
2023-05-14T11:39:43.839Z,21.00
2023-05-14T11:45:11.919Z,21.09
2023-05-14T11:50:47.761Z,21.15
2023-05-14T11:56:22.383Z,21.13
2023-05-14T12:01:50.654Z,21.07
2023-05-14T12:07:20.515Z,20.93
2023-05-14T12:12:46.380Z,20.69
2023-05-14T12:18:24.002Z,20.45
2023-05-14T12:23:52.654Z,20.29
2023-05-14T12:29:21.972Z,20.30
2023-05-14T12:34:27.587Z,20.36
2023-05-14T12:39:54.771Z,20.46
2023-05-14T12:45:16.672Z,20.64
2023-05-14T12:50:42.466Z,20.86
2023-05-14T12:55:59.096Z,21.21
2023-05-14T13:01:17.956Z,21.91
2023-05-14T13:06:38.033Z,22.30
2023-05-14T13:12:03.726Z,22.47
2023-05-14T13:17:14.504Z,22.28
2023-05-14T13:22:40.133Z,21.93
2023-05-14T13:28:05.959Z,21.62
2023-05-14T13:33:31.633Z,21.41
2023-05-14T13:38:57.840Z,21.23
2023-05-14T13:44:23.605Z,21.06
2023-05-14T13:49:40.330Z,20.99
2023-05-14T13:54:58.684Z,21.02
2023-05-14T14:00:12.938Z,21.04
2023-05-14T14:05:32.352Z,21.11
2023-05-14T14:10:58.675Z,21.25
2023-05-14T14:16:24.724Z,21.43
2023-05-14T14:21:44.439Z,21.54
2023-05-14T14:27:10.462Z,21.52
2023-05-14T14:32:28.622Z,21.36
2023-05-14T14:37:54.364Z,21.14
2023-05-14T14:43:11.054Z,20.94
2023-05-14T14:48:38.567Z,20.72
2023-05-14T14:54:04.486Z,20.54
2023-05-14T14:59:30.125Z,20.39
2023-05-14T15:04:46.749Z,20.24
2023-05-14T15:10:12.368Z,20.15
2023-05-14T15:15:38.890Z,20.06
2023-05-14T15:21:03.323Z,19.97
2023-05-14T15:26:21.967Z,19.91
2023-05-14T15:31:47.779Z,19.79
2023-05-14T15:37:13.748Z,19.68
2023-05-14T15:42:39.602Z,19.58
2023-05-14T15:48:05.357Z,19.54
2023-05-14T15:53:31.064Z,19.47
2023-05-14T15:58:39.907Z,19.46
2023-05-14T16:04:05.970Z,19.48
2023-05-14T16:09:32.227Z,19.45
2023-05-14T16:14:47.884Z,19.46
2023-05-14T16:20:04.364Z,19.47
2023-05-14T16:25:30.445Z,19.44
2023-05-14T16:30:56.517Z,19.39
2023-05-14T16:36:01.899Z,19.38
2023-05-14T16:41:09.385Z,19.35
2023-05-14T16:46:15.133Z,19.28
2023-05-14T16:51:20.751Z,19.23
2023-05-14T16:56:26.622Z,19.18
2023-05-14T17:01:32.536Z,19.15
2023-05-14T17:06:37.884Z,19.05
2023-05-14T17:11:43.794Z,18.99
2023-05-14T17:16:48.366Z,18.91
2023-05-14T17:21:54.009Z,18.84
2023-05-14T17:26:59.512Z,18.68
2023-05-14T17:32:05.642Z,18.52
2023-05-14T17:37:11.159Z,18.39
2023-05-14T17:42:16.825Z,18.30
2023-05-14T17:47:22.248Z,18.17
2023-05-14T17:52:27.647Z,18.03
2023-05-14T17:57:33.259Z,17.86
2023-05-14T18:02:38.962Z,17.70
2023-05-14T18:07:44.668Z,17.52
2023-05-14T18:12:50.084Z,17.35
2023-05-14T18:17:55.502Z,17.18
2023-05-14T18:23:00.894Z,17.03
2023-05-14T18:28:08.169Z,16.90
2023-05-14T18:33:14.341Z,16.74
2023-05-14T18:38:19.986Z,16.59
2023-05-14T18:43:26.278Z,16.43
2023-05-14T18:48:32.045Z,16.28
2023-05-14T18:53:37.955Z,16.14
2023-05-14T18:58:43.496Z,16.02
2023-05-14T19:03:48.999Z,15.90
2023-05-14T19:08:54.494Z,15.80
2023-05-14T19:14:00.179Z,15.67
2023-05-14T19:19:05.761Z,15.55
2023-05-14T19:24:11.462Z,15.42
2023-05-14T19:29:16.770Z,15.28
2023-05-14T19:34:22.134Z,15.12
2023-05-14T19:39:27.518Z,14.96
2023-05-14T19:44:33.255Z,14.81
2023-05-14T19:49:38.575Z,14.68
2023-05-14T19:54:44.294Z,14.55
2023-05-14T19:59:49.559Z,14.40
2023-05-14T20:04:55.469Z,14.26
2023-05-14T20:10:00.831Z,14.13
2023-05-14T20:15:07.823Z,14.03
2023-05-14T20:20:14.435Z,13.88
2023-05-14T20:25:19.837Z,13.71
2023-05-14T20:30:25.440Z,13.57
2023-05-14T20:35:31.626Z,13.46
2023-05-14T20:40:37.166Z,13.35
2023-05-14T20:45:42.933Z,13.23
2023-05-14T20:50:48.365Z,13.13
2023-05-14T20:55:53.721Z,12.99
2023-05-14T21:01:00.391Z,12.90
2023-05-14T21:06:06.437Z,12.80
2023-05-14T21:11:11.778Z,12.67
2023-05-14T21:16:17.389Z,12.54
2023-05-14T21:21:22.822Z,12.42
2023-05-14T21:26:31.415Z,12.32
2023-05-14T21:31:36.741Z,12.21
2023-05-14T21:36:42.400Z,12.12
2023-05-14T21:41:47.755Z,12.04
2023-05-14T21:46:53.191Z,11.94
2023-05-14T21:51:58.565Z,11.87
2023-05-14T21:57:04.335Z,11.79
2023-05-14T22:02:09.867Z,11.71
2023-05-14T22:07:15.789Z,11.61
2023-05-14T22:12:21.218Z,11.50
2023-05-14T22:17:27.985Z,11.43
2023-05-14T22:22:33.746Z,11.35
2023-05-14T22:27:39.329Z,11.23
2023-05-14T22:32:44.826Z,11.10
2023-05-14T22:37:50.208Z,11.03
2023-05-14T22:42:55.530Z,10.95
2023-05-14T22:48:01.184Z,10.87
2023-05-14T22:53:06.747Z,10.77
2023-05-14T22:58:12.204Z,10.67
2023-05-14T23:03:17.524Z,10.55
2023-05-14T23:08:22.990Z,10.47
2023-05-14T23:13:28.335Z,10.37
2023-05-14T23:18:34.002Z,10.30
2023-05-14T23:23:39.541Z,10.22
2023-05-14T23:28:45.069Z,10.13
2023-05-14T23:33:50.371Z,10.04
2023-05-14T23:38:55.930Z,9.96
2023-05-14T23:44:01.828Z,9.89
2023-05-14T23:49:07.687Z,9.81
2023-05-14T23:54:13.102Z,9.72
2023-05-14T23:59:18.490Z,9.66
